sensor_id;sensor_type;location;lat;lon;timestamp;P1;durP1;ratioP1;P2;durP2;ratioP2
23588;SDS011;11972;48.078;11.876;2023-12-07T00:03:44;8.43;;;7.70;;
23588;SDS011;11972;48.078;11.876;2023-12-07T00:07:44;8.68;;;7.80;;
23588;SDS011;11972;48.078;11.876;2023-12-07T00:11:44;9.35;;;8.20;;
23588;SDS011;11972;48.078;11.876;2023-12-07T00:15:44;8.70;;;7.90;;
23588;SDS011;11972;48.078;11.876;2023-12-07T00:19:45;8.88;;;7.97;;
23588;SDS011;11972;48.078;11.876;2023-12-07T00:23:45;8.68;;;7.78;;
23588;SDS011;11972;48.078;11.876;2023-12-07T00:27:46;8.23;;;7.43;;
23588;SDS011;11972;48.078;11.876;2023-12-07T00:31:47;8.18;;;7.47;;
23588;SDS011;11972;48.078;11.876;2023-12-07T00:35:48;8.35;;;7.55;;
23588;SDS011;11972;48.078;11.876;2023-12-07T00:39:48;8.48;;;7.60;;
23588;SDS011;11972;48.078;11.876;2023-12-07T00:43:49;9.02;;;8.10;;
23588;SDS011;11972;48.078;11.876;2023-12-07T00:47:49;9.13;;;8.23;;
23588;SDS011;11972;48.078;11.876;2023-12-07T00:51:49;10.45;;;8.27;;
23588;SDS011;11972;48.078;11.876;2023-12-07T00:55:49;8.75;;;7.55;;
23588;SDS011;11972;48.078;11.876;2023-12-07T00:59:50;9.55;;;8.32;;
23588;SDS011;11972;48.078;11.876;2023-12-07T01:03:50;8.27;;;7.47;;
23588;SDS011;11972;48.078;11.876;2023-12-07T01:07:50;8.35;;;7.47;;
23588;SDS011;11972;48.078;11.876;2023-12-07T01:11:51;8.00;;;7.20;;
23588;SDS011;11972;48.078;11.876;2023-12-07T01:15:51;8.85;;;7.72;;
23588;SDS011;11972;48.078;11.876;2023-12-07T01:19:52;9.48;;;8.43;;
23588;SDS011;11972;48.078;11.876;2023-12-07T01:23:52;13.18;;;10.60;;
23588;SDS011;11972;48.078;11.876;2023-12-07T01:27:52;11.60;;;9.93;;
23588;SDS011;11972;48.078;11.876;2023-12-07T01:31:53;15.25;;;10.27;;
23588;SDS011;11972;48.078;11.876;2023-12-07T01:35:53;12.75;;;10.43;;
23588;SDS011;11972;48.078;11.876;2023-12-07T01:39:53;13.38;;;10.48;;
23588;SDS011;11972;48.078;11.876;2023-12-07T01:43:54;12.45;;;10.52;;
23588;SDS011;11972;48.078;11.876;2023-12-07T01:47:54;15.95;;;12.68;;
23588;SDS011;11972;48.078;11.876;2023-12-07T01:51:56;15.52;;;11.30;;
23588;SDS011;11972;48.078;11.876;2023-12-07T01:55:57;14.25;;;12.00;;
23588;SDS011;11972;48.078;11.876;2023-12-07T01:59:58;16.30;;;11.68;;
23588;SDS011;11972;48.078;11.876;2023-12-07T02:03:59;16.30;;;12.35;;
23588;SDS011;11972;48.078;11.876;2023-12-07T02:07:59;36.65;;;14.23;;
23588;SDS011;11972;48.078;11.876;2023-12-07T02:11:59;23.92;;;15.00;;
23588;SDS011;11972;48.078;11.876;2023-12-07T02:16:00;21.83;;;15.25;;
23588;SDS011;11972;48.078;11.876;2023-12-07T02:20:26;20.38;;;14.43;;
23588;SDS011;11972;48.078;11.876;2023-12-07T02:24:31;25.50;;;16.17;;
23588;SDS011;11972;48.078;11.876;2023-12-07T02:28:33;27.52;;;16.67;;
23588;SDS011;11972;48.078;11.876;2023-12-07T02:32:34;27.80;;;16.73;;
23588;SDS011;11972;48.078;11.876;2023-12-07T02:36:36;25.25;;;15.85;;
23588;SDS011;11972;48.078;11.876;2023-12-07T02:40:39;22.73;;;14.75;;
23588;SDS011;11972;48.078;11.876;2023-12-07T02:44:41;19.30;;;13.23;;
23588;SDS011;11972;48.078;11.876;2023-12-07T02:48:41;17.65;;;12.38;;
23588;SDS011;11972;48.078;11.876;2023-12-07T02:52:42;20.48;;;13.88;;
23588;SDS011;11972;48.078;11.876;2023-12-07T02:56:42;19.50;;;13.43;;
23588;SDS011;11972;48.078;11.876;2023-12-07T03:00:43;22.77;;;13.75;;
23588;SDS011;11972;48.078;11.876;2023-12-07T03:04:43;19.05;;;13.20;;
23588;SDS011;11972;48.078;11.876;2023-12-07T03:08:43;16.42;;;12.35;;
23588;SDS011;11972;48.078;11.876;2023-12-07T03:12:43;16.75;;;12.48;;
23588;SDS011;11972;48.078;11.876;2023-12-07T03:16:44;17.40;;;12.60;;
23588;SDS011;11972;48.078;11.876;2023-12-07T03:20:44;17.25;;;11.80;;
23588;SDS011;11972;48.078;11.876;2023-12-07T03:24:45;15.45;;;11.57;;
23588;SDS011;11972;48.078;11.876;2023-12-07T03:28:47;15.02;;;11.73;;
23588;SDS011;11972;48.078;11.876;2023-12-07T03:32:47;15.75;;;11.43;;
23588;SDS011;11972;48.078;11.876;2023-12-07T03:36:48;13.05;;;10.18;;
23588;SDS011;11972;48.078;11.876;2023-12-07T03:40:48;13.85;;;10.38;;
23588;SDS011;11972;48.078;11.876;2023-12-07T03:44:49;14.02;;;10.52;;
23588;SDS011;11972;48.078;11.876;2023-12-07T03:48:50;12.32;;;10.15;;
23588;SDS011;11972;48.078;11.876;2023-12-07T03:52:50;14.82;;;11.52;;
23588;SDS011;11972;48.078;11.876;2023-12-07T03:56:50;15.27;;;11.25;;
23588;SDS011;11972;48.078;11.876;2023-12-07T04:00:50;18.30;;;11.95;;
23588;SDS011;11972;48.078;11.876;2023-12-07T04:04:51;15.90;;;10.98;;
23588;SDS011;11972;48.078;11.876;2023-12-07T04:08:51;13.85;;;10.95;;
23588;SDS011;11972;48.078;11.876;2023-12-07T04:12:53;16.30;;;12.00;;
23588;SDS011;11972;48.078;11.876;2023-12-07T04:16:53;14.38;;;11.15;;
23588;SDS011;11972;48.078;11.876;2023-12-07T04:20:54;15.52;;;11.50;;
23588;SDS011;11972;48.078;11.876;2023-12-07T04:24:54;15.07;;;11.32;;
23588;SDS011;11972;48.078;11.876;2023-12-07T04:28:54;14.70;;;11.13;;
23588;SDS011;11972;48.078;11.876;2023-12-07T04:32:55;13.20;;;10.13;;
23588;SDS011;11972;48.078;11.876;2023-12-07T04:36:55;12.15;;;9.63;;
23588;SDS011;11972;48.078;11.876;2023-12-07T04:40:55;13.98;;;10.35;;
23588;SDS011;11972;48.078;11.876;2023-12-07T04:44:56;11.90;;;10.02;;
23588;SDS011;11972;48.078;11.876;2023-12-07T04:48:56;14.38;;;11.38;;
23588;SDS011;11972;48.078;11.876;2023-12-07T04:52:56;17.98;;;13.20;;
23588;SDS011;11972;48.078;11.876;2023-12-07T04:56:57;15.32;;;11.82;;
23588;SDS011;11972;48.078;11.876;2023-12-07T05:00:57;13.48;;;10.57;;
23588;SDS011;11972;48.078;11.876;2023-12-07T05:04:59;13.35;;;9.93;;
23588;SDS011;11972;48.078;11.876;2023-12-07T05:08:59;12.68;;;9.48;;
23588;SDS011;11972;48.078;11.876;2023-12-07T05:13:00;12.85;;;10.60;;
23588;SDS011;11972;48.078;11.876;2023-12-07T05:17:01;11.68;;;8.77;;
23588;SDS011;11972;48.078;11.876;2023-12-07T05:21:01;9.82;;;8.50;;
23588;SDS011;11972;48.078;11.876;2023-12-07T05:25:01;12.75;;;10.65;;
23588;SDS011;11972;48.078;11.876;2023-12-07T05:29:02;11.63;;;8.98;;
23588;SDS011;11972;48.078;11.876;2023-12-07T05:33:02;10.80;;;8.82;;
23588;SDS011;11972;48.078;11.876;2023-12-07T05:37:03;11.57;;;8.75;;
23588;SDS011;11972;48.078;11.876;2023-12-07T05:41:04;11.85;;;9.23;;
23588;SDS011;11972;48.078;11.876;2023-12-07T05:45:04;13.63;;;10.00;;
23588;SDS011;11972;48.078;11.876;2023-12-07T05:49:06;15.88;;;10.95;;
23588;SDS011;11972;48.078;11.876;2023-12-07T05:53:07;11.57;;;9.65;;
23588;SDS011;11972;48.078;11.876;2023-12-07T05:57:07;25.58;;;17.35;;
23588;SDS011;11972;48.078;11.876;2023-12-07T06:01:07;19.77;;;14.63;;
23588;SDS011;11972;48.078;11.876;2023-12-07T06:05:08;23.13;;;15.77;;
23588;SDS011;11972;48.078;11.876;2023-12-07T06:09:09;19.92;;;12.23;;
23588;SDS011;11972;48.078;11.876;2023-12-07T06:13:09;19.42;;;13.65;;
23588;SDS011;11972;48.078;11.876;2023-12-07T06:17:10;21.17;;;16.25;;
23588;SDS011;11972;48.078;11.876;2023-12-07T06:21:11;21.05;;;13.77;;
23588;SDS011;11972;48.078;11.876;2023-12-07T06:25:12;17.38;;;11.35;;
23588;SDS011;11972;48.078;11.876;2023-12-07T06:29:12;22.25;;;13.77;;
23588;SDS011;11972;48.078;11.876;2023-12-07T06:33:13;25.95;;;15.02;;
23588;SDS011;11972;48.078;11.876;2023-12-07T06:37:14;48.85;;;28.00;;
23588;SDS011;11972;48.078;11.876;2023-12-07T06:41:14;45.97;;;29.70;;
23588;SDS011;11972;48.078;11.876;2023-12-07T06:45:15;26.90;;;15.23;;
23588;SDS011;11972;48.078;11.876;2023-12-07T06:49:16;21.67;;;14.30;;
23588;SDS011;11972;48.078;11.876;2023-12-07T06:53:16;19.10;;;12.65;;
23588;SDS011;11972;48.078;11.876;2023-12-07T06:57:18;21.77;;;13.00;;
23588;SDS011;11972;48.078;11.876;2023-12-07T07:01:18;29.60;;;17.80;;
23588;SDS011;11972;48.078;11.876;2023-12-07T07:05:19;24.90;;;16.38;;
23588;SDS011;11972;48.078;11.876;2023-12-07T07:09:19;23.58;;;14.98;;
23588;SDS011;11972;48.078;11.876;2023-12-07T07:13:21;21.35;;;13.27;;
23588;SDS011;11972;48.078;11.876;2023-12-07T07:17:21;17.88;;;11.43;;
23588;SDS011;11972;48.078;11.876;2023-12-07T07:21:21;12.93;;;9.85;;
23588;SDS011;11972;48.078;11.876;2023-12-07T07:25:22;16.83;;;11.90;;
23588;SDS011;11972;48.078;11.876;2023-12-07T07:29:23;17.60;;;13.40;;
23588;SDS011;11972;48.078;11.876;2023-12-07T07:33:23;18.40;;;11.93;;
23588;SDS011;11972;48.078;11.876;2023-12-07T07:37:24;20.55;;;14.00;;
23588;SDS011;11972;48.078;11.876;2023-12-07T07:41:24;18.73;;;11.90;;
23588;SDS011;11972;48.078;11.876;2023-12-07T07:45:25;17.95;;;11.77;;
23588;SDS011;11972;48.078;11.876;2023-12-07T07:49:25;20.92;;;13.13;;
23588;SDS011;11972;48.078;11.876;2023-12-07T07:53:25;17.90;;;12.35;;
23588;SDS011;11972;48.078;11.876;2023-12-07T07:57:26;17.90;;;10.88;;
23588;SDS011;11972;48.078;11.876;2023-12-07T08:01:26;12.93;;;9.80;;
23588;SDS011;11972;48.078;11.876;2023-12-07T08:05:26;14.02;;;9.80;;
23588;SDS011;11972;48.078;11.876;2023-12-07T08:09:27;19.63;;;12.95;;
23588;SDS011;11972;48.078;11.876;2023-12-07T08:13:27;15.73;;;10.75;;
23588;SDS011;11972;48.078;11.876;2023-12-07T08:17:27;14.25;;;10.70;;
23588;SDS011;11972;48.078;11.876;2023-12-07T08:21:28;12.63;;;9.50;;
23588;SDS011;11972;48.078;11.876;2023-12-07T08:25:29;14.07;;;9.50;;
23588;SDS011;11972;48.078;11.876;2023-12-07T08:29:32;11.60;;;8.90;;
23588;SDS011;11972;48.078;11.876;2023-12-07T08:33:32;14.40;;;10.48;;
23588;SDS011;11972;48.078;11.876;2023-12-07T08:37:37;12.15;;;8.60;;
23588;SDS011;11972;48.078;11.876;2023-12-07T08:41:38;10.13;;;8.27;;
23588;SDS011;11972;48.078;11.876;2023-12-07T08:45:39;10.60;;;8.15;;
23588;SDS011;11972;48.078;11.876;2023-12-07T08:49:39;9.25;;;7.88;;
23588;SDS011;11972;48.078;11.876;2023-12-07T08:53:40;8.02;;;7.22;;
23588;SDS011;11972;48.078;11.876;2023-12-07T08:57:40;8.23;;;7.25;;
23588;SDS011;11972;48.078;11.876;2023-12-07T09:01:40;9.02;;;7.32;;
23588;SDS011;11972;48.078;11.876;2023-12-07T09:05:40;8.77;;;7.88;;
23588;SDS011;11972;48.078;11.876;2023-12-07T09:09:41;8.88;;;7.50;;
23588;SDS011;11972;48.078;11.876;2023-12-07T09:13:47;8.48;;;7.47;;
23588;SDS011;11972;48.078;11.876;2023-12-07T09:17:47;7.78;;;6.95;;
23588;SDS011;11972;48.078;11.876;2023-12-07T09:21:48;11.02;;;7.30;;
23588;SDS011;11972;48.078;11.876;2023-12-07T09:25:49;7.72;;;7.00;;
23588;SDS011;11972;48.078;11.876;2023-12-07T09:29:49;7.57;;;6.88;;
23588;SDS011;11972;48.078;11.876;2023-12-07T09:33:51;8.02;;;7.22;;
23588;SDS011;11972;48.078;11.876;2023-12-07T09:37:53;7.43;;;6.65;;
23588;SDS011;11972;48.078;11.876;2023-12-07T09:41:54;8.73;;;7.53;;
23588;SDS011;11972;48.078;11.876;2023-12-07T09:45:54;7.13;;;6.43;;
23588;SDS011;11972;48.078;11.876;2023-12-07T09:49:55;8.02;;;6.80;;
23588;SDS011;11972;48.078;11.876;2023-12-07T09:53:57;7.57;;;6.82;;
23588;SDS011;11972;48.078;11.876;2023-12-07T09:57:57;9.13;;;8.20;;
23588;SDS011;11972;48.078;11.876;2023-12-07T10:02:00;8.63;;;6.78;;
23588;SDS011;11972;48.078;11.876;2023-12-07T10:06:00;5.63;;;5.13;;
23588;SDS011;11972;48.078;11.876;2023-12-07T10:10:01;6.18;;;5.57;;
23588;SDS011;11972;48.078;11.876;2023-12-07T10:14:04;5.50;;;5.00;;
23588;SDS011;11972;48.078;11.876;2023-12-07T10:18:07;6.95;;;6.22;;
23588;SDS011;11972;48.078;11.876;2023-12-07T10:22:14;6.10;;;5.10;;
23588;SDS011;11972;48.078;11.876;2023-12-07T10:26:17;5.10;;;4.70;;
23588;SDS011;11972;48.078;11.876;2023-12-07T10:30:20;4.90;;;4.40;;
23588;SDS011;11972;48.078;11.876;2023-12-07T10:34:25;4.03;;;3.72;;
23588;SDS011;11972;48.078;11.876;2023-12-07T10:38:26;4.05;;;3.65;;
23588;SDS011;11972;48.078;11.876;2023-12-07T10:42:27;3.95;;;3.55;;
23588;SDS011;11972;48.078;11.876;2023-12-07T10:46:32;3.00;;;2.75;;
23588;SDS011;11972;48.078;11.876;2023-12-07T10:50:35;2.70;;;2.50;;
23588;SDS011;11972;48.078;11.876;2023-12-07T10:54:47;3.08;;;2.88;;
23588;SDS011;11972;48.078;11.876;2023-12-07T10:58:54;2.92;;;2.72;;
23588;SDS011;11972;48.078;11.876;2023-12-07T11:02:55;2.80;;;2.60;;
23588;SDS011;11972;48.078;11.876;2023-12-07T11:07:00;2.50;;;2.30;;
23588;SDS011;11972;48.078;11.876;2023-12-07T11:15:12;2.75;;;2.55;;
23588;SDS011;11972;48.078;11.876;2023-12-07T11:23:29;2.20;;;2.00;;
23588;SDS011;11972;48.078;11.876;2023-12-07T11:27:31;1.77;;;1.58;;
23588;SDS011;11972;48.078;11.876;2023-12-07T11:31:32;2.15;;;1.95;;
23588;SDS011;11972;48.078;11.876;2023-12-07T11:35:33;3.50;;;2.33;;
23588;SDS011;11972;48.078;11.876;2023-12-07T11:39:37;2.08;;;1.88;;
23588;SDS011;11972;48.078;11.876;2023-12-07T11:43:42;2.10;;;1.70;;
23588;SDS011;11972;48.078;11.876;2023-12-07T11:47:44;2.03;;;1.50;;
23588;SDS011;11972;48.078;11.876;2023-12-07T11:51:48;1.35;;;1.25;;
23588;SDS011;11972;48.078;11.876;2023-12-07T11:55:48;2.05;;;1.50;;
23588;SDS011;11972;48.078;11.876;2023-12-07T11:59:49;1.98;;;1.77;;
23588;SDS011;11972;48.078;11.876;2023-12-07T12:03:50;2.25;;;1.58;;
23588;SDS011;11972;48.078;11.876;2023-12-07T12:07:50;1.15;;;1.05;;
23588;SDS011;11972;48.078;11.876;2023-12-07T12:11:50;1.42;;;1.30;;
23588;SDS011;11972;48.078;11.876;2023-12-07T12:15:51;1.27;;;1.17;;
23588;SDS011;11972;48.078;11.876;2023-12-07T12:19:51;1.73;;;1.30;;
23588;SDS011;11972;48.078;11.876;2023-12-07T12:23:54;1.30;;;1.20;;
23588;SDS011;11972;48.078;11.876;2023-12-07T12:27:55;1.73;;;1.30;;
23588;SDS011;11972;48.078;11.876;2023-12-07T12:31:56;1.58;;;1.20;;
23588;SDS011;11972;48.078;11.876;2023-12-07T12:36:01;1.70;;;1.60;;
23588;SDS011;11972;48.078;11.876;2023-12-07T12:40:06;1.80;;;1.70;;
23588;SDS011;11972;48.078;11.876;2023-12-07T12:44:07;2.20;;;2.00;;
23588;SDS011;11972;48.078;11.876;2023-12-07T12:48:07;2.50;;;2.30;;
23588;SDS011;11972;48.078;11.876;2023-12-07T12:52:11;3.25;;;2.90;;
23588;SDS011;11972;48.078;11.876;2023-12-07T12:56:11;3.28;;;2.90;;
23588;SDS011;11972;48.078;11.876;2023-12-07T13:00:12;2.80;;;2.60;;
23588;SDS011;11972;48.078;11.876;2023-12-07T13:04:12;6.10;;;3.35;;
23588;SDS011;11972;48.078;11.876;2023-12-07T13:08:13;2.38;;;1.85;;
23588;SDS011;11972;48.078;11.876;2023-12-07T13:12:13;1.52;;;1.42;;
23588;SDS011;11972;48.078;11.876;2023-12-07T13:16:14;2.28;;;2.00;;
23588;SDS011;11972;48.078;11.876;2023-12-07T13:20:15;2.75;;;2.10;;
23588;SDS011;11972;48.078;11.876;2023-12-07T13:24:17;2.92;;;2.72;;
23588;SDS011;11972;48.078;11.876;2023-12-07T13:28:17;8.57;;;7.13;;
23588;SDS011;11972;48.078;11.876;2023-12-07T13:32:17;3.88;;;3.58;;
23588;SDS011;11972;48.078;11.876;2023-12-07T13:36:18;10.30;;;6.35;;
23588;SDS011;11972;48.078;11.876;2023-12-07T13:40:18;5.68;;;5.10;;
23588;SDS011;11972;48.078;11.876;2023-12-07T13:44:19;4.97;;;4.35;;
23588;SDS011;11972;48.078;11.876;2023-12-07T13:48:20;5.47;;;4.22;;
23588;SDS011;11972;48.078;11.876;2023-12-07T13:52:20;4.50;;;4.10;;
23588;SDS011;11972;48.078;11.876;2023-12-07T13:56:21;3.88;;;3.58;;
23588;SDS011;11972;48.078;11.876;2023-12-07T14:00:23;3.80;;;3.50;;
23588;SDS011;11972;48.078;11.876;2023-12-07T14:04:23;3.35;;;3.05;;
23588;SDS011;11972;48.078;11.876;2023-12-07T14:08:24;5.78;;;3.58;;
23588;SDS011;11972;48.078;11.876;2023-12-07T14:12:26;5.25;;;3.90;;
23588;SDS011;11972;48.078;11.876;2023-12-07T14:16:26;4.00;;;3.60;;
23588;SDS011;11972;48.078;11.876;2023-12-07T14:20:27;4.22;;;3.83;;
23588;SDS011;11972;48.078;11.876;2023-12-07T14:24:28;4.40;;;4.00;;
23588;SDS011;11972;48.078;11.876;2023-12-07T14:28:30;4.80;;;4.30;;
23588;SDS011;11972;48.078;11.876;2023-12-07T14:32:33;4.80;;;4.40;;
23588;SDS011;11972;48.078;11.876;2023-12-07T14:36:34;6.10;;;4.60;;
23588;SDS011;11972;48.078;11.876;2023-12-07T14:40:34;5.82;;;5.32;;
23588;SDS011;11972;48.078;11.876;2023-12-07T14:44:34;6.70;;;5.35;;
23588;SDS011;11972;48.078;11.876;2023-12-07T14:48:36;5.93;;;5.32;;
23588;SDS011;11972;48.078;11.876;2023-12-07T14:52:37;14.45;;;10.20;;
23588;SDS011;11972;48.078;11.876;2023-12-07T14:56:38;6.50;;;5.80;;
23588;SDS011;11972;48.078;11.876;2023-12-07T15:00:41;7.00;;;6.18;;
23588;SDS011;11972;48.078;11.876;2023-12-07T15:04:42;21.38;;;10.10;;
23588;SDS011;11972;48.078;11.876;2023-12-07T15:08:42;14.30;;;8.10;;
23588;SDS011;11972;48.078;11.876;2023-12-07T15:12:42;20.13;;;10.00;;
23588;SDS011;11972;48.078;11.876;2023-12-07T15:16:42;16.67;;;9.30;;
23588;SDS011;11972;48.078;11.876;2023-12-07T15:20:43;13.10;;;8.02;;
23588;SDS011;11972;48.078;11.876;2023-12-07T15:24:43;8.82;;;7.43;;
23588;SDS011;11972;48.078;11.876;2023-12-07T15:28:43;11.23;;;8.82;;
23588;SDS011;11972;48.078;11.876;2023-12-07T15:32:44;12.27;;;9.80;;
23588;SDS011;11972;48.078;11.876;2023-12-07T15:36:44;14.50;;;9.98;;
23588;SDS011;11972;48.078;11.876;2023-12-07T15:40:45;15.77;;;10.57;;
23588;SDS011;11972;48.078;11.876;2023-12-07T15:44:45;11.13;;;9.20;;
23588;SDS011;11972;48.078;11.876;2023-12-07T15:48:45;20.70;;;12.70;;
23588;SDS011;11972;48.078;11.876;2023-12-07T15:52:45;21.83;;;13.73;;
23588;SDS011;11972;48.078;11.876;2023-12-07T15:56:46;17.23;;;11.52;;
23588;SDS011;11972;48.078;11.876;2023-12-07T16:00:46;18.75;;;11.05;;
23588;SDS011;11972;48.078;11.876;2023-12-07T16:04:47;13.13;;;10.23;;
23588;SDS011;11972;48.078;11.876;2023-12-07T16:08:47;13.73;;;9.60;;
23588;SDS011;11972;48.078;11.876;2023-12-07T16:12:47;16.35;;;10.45;;
23588;SDS011;11972;48.078;11.876;2023-12-07T16:16:48;14.50;;;11.45;;
23588;SDS011;11972;48.078;11.876;2023-12-07T16:20:48;14.23;;;10.38;;
23588;SDS011;11972;48.078;11.876;2023-12-07T16:24:49;15.45;;;11.30;;
23588;SDS011;11972;48.078;11.876;2023-12-07T16:28:51;15.35;;;12.43;;
23588;SDS011;11972;48.078;11.876;2023-12-07T16:32:51;14.93;;;11.57;;
23588;SDS011;11972;48.078;11.876;2023-12-07T16:36:51;19.45;;;13.05;;
23588;SDS011;11972;48.078;11.876;2023-12-07T16:40:52;15.90;;;12.57;;
23588;SDS011;11972;48.078;11.876;2023-12-07T16:44:52;16.67;;;12.35;;
23588;SDS011;11972;48.078;11.876;2023-12-07T16:48:54;15.90;;;11.73;;
23588;SDS011;11972;48.078;11.876;2023-12-07T16:52:54;16.00;;;12.38;;
23588;SDS011;11972;48.078;11.876;2023-12-07T16:56:55;16.80;;;12.27;;
23588;SDS011;11972;48.078;11.876;2023-12-07T17:00:56;16.05;;;12.10;;
23588;SDS011;11972;48.078;11.876;2023-12-07T17:04:56;15.52;;;12.57;;
23588;SDS011;11972;48.078;11.876;2023-12-07T17:08:56;23.20;;;14.43;;
23588;SDS011;11972;48.078;11.876;2023-12-07T17:12:57;21.13;;;14.90;;
23588;SDS011;11972;48.078;11.876;2023-12-07T17:16:57;21.92;;;14.80;;
23588;SDS011;11972;48.078;11.876;2023-12-07T17:20:58;22.90;;;14.90;;
23588;SDS011;11972;48.078;11.876;2023-12-07T17:24:58;18.60;;;14.00;;
23588;SDS011;11972;48.078;11.876;2023-12-07T17:28:58;19.75;;;13.68;;
23588;SDS011;11972;48.078;11.876;2023-12-07T17:32:59;19.02;;;14.15;;
23588;SDS011;11972;48.078;11.876;2023-12-07T17:37:18;23.75;;;15.88;;
23588;SDS011;11972;48.078;11.876;2023-12-07T17:41:19;22.63;;;14.93;;
23588;SDS011;11972;48.078;11.876;2023-12-07T17:45:19;20.38;;;14.98;;
23588;SDS011;11972;48.078;11.876;2023-12-07T17:49:20;18.73;;;13.68;;
23588;SDS011;11972;48.078;11.876;2023-12-07T17:53:20;21.77;;;15.48;;
23588;SDS011;11972;48.078;11.876;2023-12-07T17:57:20;24.63;;;16.13;;
23588;SDS011;11972;48.078;11.876;2023-12-07T18:01:21;22.38;;;15.60;;
23588;SDS011;11972;48.078;11.876;2023-12-07T18:05:21;23.23;;;15.95;;
23588;SDS011;11972;48.078;11.876;2023-12-07T18:09:21;29.15;;;18.05;;
23588;SDS011;11972;48.078;11.876;2023-12-07T18:13:22;26.33;;;17.38;;
23588;SDS011;11972;48.078;11.876;2023-12-07T18:17:22;25.85;;;17.98;;
23588;SDS011;11972;48.078;11.876;2023-12-07T18:21:22;30.35;;;19.48;;
23588;SDS011;11972;48.078;11.876;2023-12-07T18:25:23;30.88;;;19.27;;
23588;SDS011;11972;48.078;11.876;2023-12-07T18:29:23;29.38;;;18.25;;
23588;SDS011;11972;48.078;11.876;2023-12-07T18:33:23;23.58;;;16.52;;
23588;SDS011;11972;48.078;11.876;2023-12-07T18:37:24;23.10;;;16.70;;
23588;SDS011;11972;48.078;11.876;2023-12-07T18:41:24;23.85;;;17.40;;
23588;SDS011;11972;48.078;11.876;2023-12-07T18:45:24;21.83;;;15.40;;
23588;SDS011;11972;48.078;11.876;2023-12-07T18:49:25;25.67;;;15.23;;
23588;SDS011;11972;48.078;11.876;2023-12-07T18:53:26;23.17;;;16.40;;
23588;SDS011;11972;48.078;11.876;2023-12-07T18:57:27;22.92;;;15.88;;
23588;SDS011;11972;48.078;11.876;2023-12-07T19:01:30;21.58;;;15.52;;
23588;SDS011;11972;48.078;11.876;2023-12-07T19:05:31;24.13;;;16.30;;
23588;SDS011;11972;48.078;11.876;2023-12-07T19:09:32;24.80;;;16.08;;
23588;SDS011;11972;48.078;11.876;2023-12-07T19:13:32;24.17;;;16.02;;
23588;SDS011;11972;48.078;11.876;2023-12-07T19:17:32;24.92;;;16.63;;
23588;SDS011;11972;48.078;11.876;2023-12-07T19:21:32;24.33;;;16.65;;
23588;SDS011;11972;48.078;11.876;2023-12-07T19:25:33;24.85;;;16.38;;
23588;SDS011;11972;48.078;11.876;2023-12-07T19:29:33;21.48;;;15.15;;
23588;SDS011;11972;48.078;11.876;2023-12-07T19:33:33;22.60;;;15.55;;
23588;SDS011;11972;48.078;11.876;2023-12-07T19:37:34;23.73;;;15.02;;
23588;SDS011;11972;48.078;11.876;2023-12-07T19:41:38;21.33;;;14.85;;
23588;SDS011;11972;48.078;11.876;2023-12-07T19:45:39;22.50;;;15.00;;
23588;SDS011;11972;48.078;11.876;2023-12-07T19:49:40;21.27;;;14.05;;
23588;SDS011;11972;48.078;11.876;2023-12-07T19:53:40;19.40;;;13.50;;
23588;SDS011;11972;48.078;11.876;2023-12-07T19:57:41;20.02;;;13.45;;
23588;SDS011;11972;48.078;11.876;2023-12-07T20:01:43;22.95;;;16.10;;
23588;SDS011;11972;48.078;11.876;2023-12-07T20:05:44;20.85;;;14.82;;
23588;SDS011;11972;48.078;11.876;2023-12-07T20:09:44;20.65;;;14.85;;
23588;SDS011;11972;48.078;11.876;2023-12-07T20:13:45;20.38;;;14.88;;
23588;SDS011;11972;48.078;11.876;2023-12-07T20:17:45;20.48;;;13.80;;
23588;SDS011;11972;48.078;11.876;2023-12-07T20:21:45;18.35;;;13.32;;
23588;SDS011;11972;48.078;11.876;2023-12-07T20:25:46;20.08;;;13.77;;
23588;SDS011;11972;48.078;11.876;2023-12-07T20:29:46;20.77;;;14.05;;
23588;SDS011;11972;48.078;11.876;2023-12-07T20:33:47;19.52;;;13.52;;
23588;SDS011;11972;48.078;11.876;2023-12-07T20:37:47;22.25;;;14.20;;
23588;SDS011;11972;48.078;11.876;2023-12-07T20:41:47;19.90;;;13.52;;
23588;SDS011;11972;48.078;11.876;2023-12-07T20:45:48;20.55;;;13.27;;
23588;SDS011;11972;48.078;11.876;2023-12-07T20:49:48;18.02;;;12.90;;
23588;SDS011;11972;48.078;11.876;2023-12-07T20:53:48;17.85;;;12.63;;
23588;SDS011;11972;48.078;11.876;2023-12-07T20:57:49;18.15;;;12.40;;
23588;SDS011;11972;48.078;11.876;2023-12-07T21:01:51;18.40;;;12.52;;
23588;SDS011;11972;48.078;11.876;2023-12-07T21:05:52;17.77;;;12.40;;
23588;SDS011;11972;48.078;11.876;2023-12-07T21:09:52;17.25;;;12.40;;
23588;SDS011;11972;48.078;11.876;2023-12-07T21:13:53;19.25;;;12.77;;
23588;SDS011;11972;48.078;11.876;2023-12-07T21:17:53;15.63;;;11.85;;
23588;SDS011;11972;48.078;11.876;2023-12-07T21:21:54;20.30;;;11.93;;
23588;SDS011;11972;48.078;11.876;2023-12-07T21:25:54;17.05;;;11.55;;
23588;SDS011;11972;48.078;11.876;2023-12-07T21:29:54;18.30;;;12.35;;
23588;SDS011;11972;48.078;11.876;2023-12-07T21:33:55;17.33;;;11.80;;
23588;SDS011;11972;48.078;11.876;2023-12-07T21:37:55;17.90;;;12.65;;
23588;SDS011;11972;48.078;11.876;2023-12-07T21:41:56;18.98;;;12.65;;
23588;SDS011;11972;48.078;11.876;2023-12-07T21:45:56;23.48;;;15.07;;
23588;SDS011;11972;48.078;11.876;2023-12-07T21:49:56;21.88;;;13.88;;
23588;SDS011;11972;48.078;11.876;2023-12-07T21:53:57;20.65;;;13.00;;
23588;SDS011;11972;48.078;11.876;2023-12-07T21:57:57;20.40;;;12.98;;
23588;SDS011;11972;48.078;11.876;2023-12-07T22:01:59;19.20;;;12.77;;
23588;SDS011;11972;48.078;11.876;2023-12-07T22:05:59;22.77;;;15.13;;
23588;SDS011;11972;48.078;11.876;2023-12-07T22:10:00;24.00;;;14.80;;
23588;SDS011;11972;48.078;11.876;2023-12-07T22:14:00;20.33;;;12.93;;
23588;SDS011;11972;48.078;11.876;2023-12-07T22:18:00;18.77;;;11.98;;
23588;SDS011;11972;48.078;11.876;2023-12-07T22:22:01;16.50;;;11.55;;
23588;SDS011;11972;48.078;11.876;2023-12-07T22:26:01;18.50;;;11.85;;
23588;SDS011;11972;48.078;11.876;2023-12-07T22:30:02;14.82;;;10.80;;
23588;SDS011;11972;48.078;11.876;2023-12-07T22:34:02;16.77;;;11.15;;
23588;SDS011;11972;48.078;11.876;2023-12-07T22:38:03;16.45;;;11.50;;
23588;SDS011;11972;48.078;11.876;2023-12-07T22:42:04;14.73;;;11.02;;
23588;SDS011;11972;48.078;11.876;2023-12-07T22:46:04;15.77;;;11.77;;
23588;SDS011;11972;48.078;11.876;2023-12-07T22:50:05;15.98;;;11.25;;
23588;SDS011;11972;48.078;11.876;2023-12-07T22:54:05;13.30;;;10.10;;
23588;SDS011;11972;48.078;11.876;2023-12-07T22:58:07;15.80;;;11.25;;
23588;SDS011;11972;48.078;11.876;2023-12-07T23:02:07;17.02;;;11.82;;
23588;SDS011;11972;48.078;11.876;2023-12-07T23:06:07;16.10;;;11.25;;
23588;SDS011;11972;48.078;11.876;2023-12-07T23:10:08;18.45;;;11.48;;
23588;SDS011;11972;48.078;11.876;2023-12-07T23:14:09;16.02;;;11.05;;
23588;SDS011;11972;48.078;11.876;2023-12-07T23:18:09;16.40;;;11.30;;
23588;SDS011;11972;48.078;11.876;2023-12-07T23:22:09;16.20;;;11.52;;
23588;SDS011;11972;48.078;11.876;2023-12-07T23:26:10;15.18;;;11.52;;
23588;SDS011;11972;48.078;11.876;2023-12-07T23:30:10;14.40;;;10.63;;
23588;SDS011;11972;48.078;11.876;2023-12-07T23:34:11;12.63;;;10.35;;